Time;durP1;ratioP1;P1;durP2;ratioP2;P2;SDS_P1;SDS_P2;PMS_P1;PMS_P2;Temp;Humidity;BMP_temperature;BMP_pressure;BME280_temperature;BME280_humidity;BME280_pressure;Samples;Min_cycle;Max_cycle;Signal;HPM_P1;HPM_P2
2022/05/27 00:00:44;;;;;;;2.40;1.30;;;14.70;99.90;;;;;;5102378;28;20215;-66
2022/05/27 00:03:11;;;;;;;3.15;1.30;;;14.80;99.90;;;;;;5103740;28;20016;-66
2022/05/27 00:05:37;;;;;;;2.67;0.73;;;14.80;99.90;;;;;;5102742;28;20032;-66
2022/05/27 00:08:04;;;;;;;3.28;1.42;;;14.70;99.90;;;;;;5092061;28;20035;-66
2022/05/27 00:10:29;;;;;;;3.08;0.90;;;14.70;99.90;;;;;;5081849;28;20303;-66
2022/05/27 00:12:55;;;;;;;3.03;1.08;;;14.80;99.90;;;;;;5082551;28;20020;-66
2022/05/27 00:15:21;;;;;;;5.18;0.95;;;14.80;99.90;;;;;;5082041;28;20024;-66
2022/05/27 00:17:46;;;;;;;2.85;1.23;;;14.70;99.90;;;;;;5082129;28;20327;-66
2022/05/27 00:20:13;;;;;;;2.90;1.10;;;14.70;99.90;;;;;;5081741;28;20036;-66
2022/05/27 00:22:38;;;;;;;3.08;1.30;;;14.70;99.90;;;;;;5081708;28;20311;-66
2022/05/27 00:25:06;;;;;;;7.15;1.38;;;14.70;99.90;;;;;;5083303;28;20020;-66
2022/05/27 00:27:31;;;;;;;3.65;1.38;;;14.70;99.90;;;;;;5078946;28;20091;-66
2022/05/27 00:29:57;;;;;;;3.15;1.40;;;14.70;99.90;;;;;;5101760;28;20043;-66
2022/05/27 00:32:23;;;;;;;3.47;1.27;;;14.70;99.90;;;;;;5102305;28;20083;-66
2022/05/27 00:34:49;;;;;;;2.72;1.30;;;14.70;99.90;;;;;;5102896;28;20023;-66
2022/05/27 00:37:15;;;;;;;5.95;1.80;;;14.70;99.90;;;;;;5101359;28;20044;-66
2022/05/27 00:39:42;;;;;;;5.78;1.70;;;14.80;99.90;;;;;;5103181;28;20072;-66
2022/05/27 00:42:11;;;;;;;4.72;2.10;;;14.80;99.90;;;;;;5103215;28;20073;-66
2022/05/27 00:44:37;;;;;;;7.40;2.42;;;14.80;99.90;;;;;;5085592;28;20024;-66
2022/05/27 00:47:07;;;;;;;6.30;2.58;;;14.70;99.90;;;;;;5101703;28;20031;-66
2022/05/27 00:49:33;;;;;;;7.70;2.70;;;14.70;99.90;;;;;;5085069;28;20215;-66
2022/05/27 00:52:07;;;;;;;7.88;2.75;;;14.70;99.90;;;;;;5101690;28;20192;-67
2022/05/27 00:54:34;;;;;;;9.20;2.97;;;14.70;99.90;;;;;;5101856;28;20192;-66
2022/05/27 00:57:07;;;;;;;6.88;2.65;;;14.60;99.90;;;;;;5081323;28;20063;-67
2022/05/27 00:59:40;;;;;;;6.97;2.65;;;14.70;99.90;;;;;;5082583;28;20365;-66
2022/05/27 01:02:06;;;;;;;6.65;2.88;;;14.60;99.90;;;;;;5082995;28;20078;-66
2022/05/27 01:04:35;;;;;;;5.35;2.80;;;14.60;99.90;;;;;;5098367;28;20303;-66
2022/05/27 01:07:00;;;;;;;8.02;3.42;;;14.60;99.90;;;;;;5084439;28;20028;-66
2022/05/27 01:09:29;;;;;;;9.57;3.88;;;14.60;99.90;;;;;;5102690;28;20038;-66
2022/05/27 01:12:34;;;;;;;11.15;4.50;;;14.50;99.90;;;;;;5084506;28;20416;-66
2022/05/27 01:15:16;;;;;;;10.50;4.45;;;14.50;99.90;;;;;;5087838;28;20050;-66
2022/05/27 01:18:14;;;;;;;9.73;4.88;;;14.50;99.90;;;;;;5101909;28;20016;-66
2022/05/27 01:21:01;;;;;;;10.77;4.55;;;14.40;99.90;;;;;;5101651;28;20301;-66
2022/05/27 01:24:07;;;;;;;7.75;3.90;;;14.40;99.90;;;;;;5102108;28;20315;-66
2022/05/27 01:27:01;;;;;;;7.53;3.58;;;14.40;99.90;;;;;;5110895;28;20019;-66
2022/05/27 01:30:06;;;;;;;11.50;4.63;;;14.40;99.90;;;;;;5126824;28;20043;-66
2022/05/27 01:32:45;;;;;;;7.80;3.72;;;14.50;99.90;;;;;;5114400;28;20020;-66
2022/05/27 01:35:30;;;;;;;5.53;3.03;;;14.40;99.90;;;;;;5108792;28;20137;-66
2022/05/27 01:38:14;;;;;;;7.30;3.60;;;14.40;99.90;;;;;;5125272;28;20031;-66
2022/05/27 01:41:19;;;;;;;7.68;3.38;;;14.40;99.90;;;;;;5124864;28;20080;-66
2022/05/27 01:43:56;;;;;;;8.95;3.80;;;14.30;99.90;;;;;;5114147;28;20245;-66
2022/05/27 01:46:31;;;;;;;8.70;3.30;;;14.30;99.90;;;;;;5103202;28;20024;-66
2022/05/27 01:49:22;;;;;;;11.30;3.90;;;14.30;99.90;;;;;;5104498;28;20046;-66
2022/05/27 01:51:55;;;;;;;7.35;3.92;;;14.30;99.90;;;;;;5090945;28;20023;-66
2022/05/27 01:55:00;;;;;;;5.80;3.63;;;14.30;99.90;;;;;;5105820;28;20020;-66
2022/05/27 01:57:33;;;;;;;6.68;3.53;;;14.40;99.90;;;;;;5093366;28;20338;-66
2022/05/27 02:00:20;;;;;;;10.45;3.60;;;14.30;99.90;;;;;;5104683;28;20099;-67
2022/05/27 02:03:09;;;;;;;8.50;3.45;;;14.30;99.90;;;;;;5105515;28;20088;-66
2022/05/27 02:05:58;;;;;;;6.85;3.78;;;14.30;99.90;;;;;;5104774;28;20035;-67
2022/05/27 02:08:30;;;;;;;6.70;3.47;;;14.40;99.90;;;;;;5077299;28;20032;-66
2022/05/27 02:11:04;;;;;;;5.10;3.30;;;14.50;99.90;;;;;;5084838;28;20048;-66
2022/05/27 02:13:38;;;;;;;7.90;3.67;;;14.50;99.90;;;;;;5083845;28;20227;-66
2022/05/27 02:16:08;;;;;;;7.78;4.18;;;14.50;99.90;;;;;;5085473;28;20016;-66
2022/05/27 02:18:41;;;;;;;6.70;3.65;;;14.50;99.90;;;;;;5085437;28;20025;-66
2022/05/27 02:21:16;;;;;;;7.47;3.53;;;14.50;99.90;;;;;;5067106;28;20024;-66
2022/05/27 02:23:53;;;;;;;7.30;4.13;;;14.50;99.90;;;;;;5083661;28;20021;-66
2022/05/27 02:26:31;;;;;;;7.93;4.63;;;14.50;99.90;;;;;;5092522;28;20296;-66
2022/05/27 02:29:01;;;;;;;10.40;4.80;;;14.50;99.90;;;;;;5125727;28;20256;-66
2022/05/27 02:31:32;;;;;;;8.65;4.30;;;14.40;99.90;;;;;;5124433;28;20023;-66
2022/05/27 02:37:03;;;;;;;8.38;5.07;;;14.40;99.90;;;;;;5124061;28;20031;-66
2022/05/27 02:39:30;;;;;;;9.23;5.53;;;14.30;99.90;;;;;;5106182;28;20258;-66
2022/05/27 02:42:19;;;;;;;10.48;5.68;;;14.30;99.90;;;;;;5125402;28;20101;-66
2022/05/27 02:45:05;;;;;;;10.07;5.60;;;14.30;99.90;;;;;;5110728;28;20058;-66
2022/05/27 02:47:57;;;;;;;10.50;5.60;;;14.30;99.90;;;;;;5109651;28;20115;-66
2022/05/27 02:50:49;;;;;;;10.70;6.03;;;14.20;99.90;;;;;;5103998;28;20024;-66
2022/05/27 02:53:27;;;;;;;9.43;6.13;;;14.20;99.90;;;;;;5103835;28;20023;-66
2022/05/27 02:56:11;;;;;;;12.27;6.47;;;14.10;99.90;;;;;;5103742;28;20029;-66
2022/05/27 02:58:40;;;;;;;9.10;5.47;;;14.10;99.90;;;;;;5103391;28;20303;-66
2022/05/27 03:01:06;;;;;;;13.02;5.00;;;14.00;99.90;;;;;;5104570;28;20028;-66
2022/05/27 03:03:32;;;;;;;14.30;5.90;;;13.90;99.90;;;;;;5102747;28;20047;-66
2022/05/27 03:06:28;;;;;;;11.38;5.70;;;13.80;99.90;;;;;;5103030;28;20019;-66
2022/05/27 03:09:20;;;;;;;9.90;5.47;;;13.70;99.90;;;;;;5085479;28;20066;-66
2022/05/27 03:11:52;;;;;;;11.25;5.78;;;13.70;99.90;;;;;;5083078;28;20220;-66
2022/05/27 03:14:24;;;;;;;;;;;13.60;99.90;;;;;;5083478;28;20028;-66
2022/05/27 03:17:21;;;;;;;9.43;5.43;;;13.60;99.90;;;;;;5084171;28;19923;-66
2022/05/27 03:20:13;;;;;;;12.13;5.65;;;13.60;99.90;;;;;;5083056;28;20066;-66
2022/05/27 03:23:06;;;;;;;9.00;5.25;;;13.50;99.90;;;;;;5084046;28;20096;-66
2022/05/27 03:25:41;;;;;;;14.07;5.47;;;13.50;99.90;;;;;;5082514;28;20369;-66
2022/05/27 03:28:37;;;;;;;11.38;5.63;;;13.40;99.90;;;;;;5120801;28;20035;-66
2022/05/27 03:31:13;;;;;;;11.32;5.78;;;13.40;99.90;;;;;;5109258;28;20028;-66
2022/05/27 03:33:50;;;;;;;10.00;5.40;;;13.40;99.90;;;;;;5106995;28;20019;-66
2022/05/27 03:36:44;;;;;;;14.50;6.90;;;13.30;99.90;;;;;;5124166;28;20051;-66
2022/05/27 03:39:35;;;;;;;9.40;5.57;;;13.30;99.90;;;;;;5121850;28;20215;-66
2022/05/27 03:42:04;;;;;;;12.27;6.13;;;13.20;99.90;;;;;;5094918;28;20023;-66
2022/05/27 03:44:31;;;;;;;9.45;5.72;;;13.20;99.90;;;;;;5122593;28;20329;-66
2022/05/27 03:46:58;;;;;;;14.27;5.70;;;13.20;99.90;;;;;;5112694;28;20191;-66
2022/05/27 03:49:24;;;;;;;12.38;6.38;;;13.20;99.90;;;;;;5069432;28;20308;-66
2022/05/27 03:51:57;;;;;;;14.43;6.07;;;13.10;99.90;;;;;;5103256;28;20338;-66
2022/05/27 03:54:24;;;;;;;11.55;5.70;;;13.10;99.90;;;;;;5115305;28;20062;-66
2022/05/27 03:56:50;;;;;;;13.13;5.97;;;13.10;99.90;;;;;;5110370;28;20020;-66
2022/05/27 03:59:17;;;;;;;13.70;5.63;;;13.00;99.90;;;;;;5103663;28;20024;-66
2022/05/27 04:01:45;;;;;;;16.13;4.93;;;13.00;99.90;;;;;;5085676;28;20015;-66
2022/05/27 04:04:18;;;;;;;12.32;5.22;;;13.00;99.90;;;;;;5102396;28;20299;-66
2022/05/27 04:06:46;;;;;;;12.57;5.43;;;13.00;99.90;;;;;;5103262;28;20023;-66
2022/05/27 04:09:12;;;;;;;10.95;5.18;;;13.00;99.90;;;;;;5082814;28;20037;-66
2022/05/27 04:11:38;;;;;;;10.88;5.38;;;13.00;99.90;;;;;;5099366;28;20066;-66
2022/05/27 04:14:03;;;;;;;9.07;4.88;;;13.00;99.90;;;;;;5081677;28;20024;-66
2022/05/27 04:16:29;;;;;;;10.65;4.88;;;12.90;99.90;;;;;;5083414;28;20190;-66
2022/05/27 04:18:55;;;;;;;11.38;3.90;;;12.90;99.90;;;;;;5098655;28;20073;-66
2022/05/27 04:21:21;;;;;;;10.45;3.78;;;12.90;99.90;;;;;;5099033;28;20195;-66
2022/05/27 04:23:46;;;;;;;14.65;3.80;;;12.90;99.90;;;;;;5098784;28;20036;-66
2022/05/27 04:26:12;;;;;;;10.23;3.45;;;12.90;99.90;;;;;;5088893;28;20252;-66
2022/05/27 04:28:38;;;;;;;10.32;3.92;;;12.90;99.90;;;;;;5123984;28;20049;-66
2022/05/27 04:31:04;;;;;;;6.13;3.22;;;12.90;99.90;;;;;;5104546;28;20138;-66
2022/05/27 04:33:30;;;;;;;8.00;3.50;;;12.90;99.90;;;;;;5122846;28;20043;-66
2022/05/27 04:35:59;;;;;;;9.07;3.50;;;12.80;99.90;;;;;;5123179;28;20053;-66
2022/05/27 04:38:26;;;;;;;7.07;3.08;;;12.90;99.90;;;;;;5122439;28;20019;-66
2022/05/27 04:40:52;;;;;;;12.68;3.35;;;12.90;99.90;;;;;;5121930;28;20049;-66
2022/05/27 04:43:18;;;;;;;13.60;3.60;;;12.90;99.90;;;;;;5123698;28;20023;-66
2022/05/27 04:45:50;;;;;;;7.05;2.90;;;13.00;99.90;;;;;;5123192;28;20027;-66
2022/05/27 04:48:18;;;;;;;8.35;3.13;;;13.10;99.90;;;;;;5103023;28;20070;-66
2022/05/27 04:50:44;;;;;;;6.95;2.78;;;13.30;99.90;;;;;;5101870;28;20266;-66
2022/05/27 04:53:10;;;;;;;10.88;2.22;;;13.40;99.90;;;;;;5102897;28;20065;-66
2022/05/27 04:55:37;;;;;;;8.82;2.40;;;13.50;99.90;;;;;;5101845;28;20259;-66
2022/05/27 04:58:03;;;;;;;4.57;2.33;;;13.60;99.90;;;;;;5104671;28;20020;-66
2022/05/27 05:00:34;;;;;;;11.23;2.40;;;13.60;99.90;;;;;;5105742;28;20020;-66
2022/05/27 05:03:00;;;;;;;8.70;2.20;;;13.70;99.90;;;;;;5104990;28;20047;-66
2022/05/27 05:05:28;;;;;;;10.15;2.15;;;13.80;99.90;;;;;;5105602;28;20238;-66
2022/05/27 05:07:58;;;;;;;4.90;2.25;;;13.90;99.90;;;;;;5095791;28;20143;-66
2022/05/27 05:10:25;;;;;;;8.48;2.85;;;14.00;99.90;;;;;;5084656;28;20312;-66
2022/05/27 05:12:51;;;;;;;6.90;2.55;;;13.90;99.90;;;;;;5085678;28;20016;-66
2022/05/27 05:15:19;;;;;;;7.75;2.55;;;13.90;99.90;;;;;;5084801;28;20047;-66
2022/05/27 05:17:44;;;;;;;16.00;2.72;;;14.00;99.90;;;;;;5084292;28;20021;-66
2022/05/27 05:20:13;;;;;;;12.27;2.58;;;13.80;99.90;;;;;;5084836;28;20035;-66
2022/05/27 05:22:40;;;;;;;14.52;2.13;;;13.60;99.90;;;;;;5068020;28;20027;-66
2022/05/27 05:25:06;;;;;;;8.65;2.00;;;13.50;99.90;;;;;;5083994;28;20036;-66
2022/05/27 05:27:34;;;;;;;15.48;2.78;;;13.40;99.90;;;;;;5112775;28;20024;-66
2022/05/27 05:30:01;;;;;;;8.88;2.63;;;13.30;99.90;;;;;;5108572;28;20023;-66
2022/05/27 05:32:27;;;;;;;12.07;2.42;;;13.30;99.90;;;;;;5126625;28;20030;-66
2022/05/27 05:34:53;;;;;;;12.23;2.22;;;13.40;99.90;;;;;;5126227;28;20050;-66
2022/05/27 05:37:19;;;;;;;8.35;2.00;;;13.40;99.90;;;;;;5125109;28;20094;-66
2022/05/27 05:39:45;;;;;;;9.25;2.25;;;13.40;99.90;;;;;;5126476;28;20084;-66
2022/05/27 05:42:11;;;;;;;11.38;2.45;;;13.30;99.70;;;;;;5124512;28;20028;-65
2022/05/27 05:44:37;;;;;;;17.55;2.78;;;13.30;99.90;;;;;;5125231;28;20023;-66
2022/05/27 05:47:03;;;;;;;21.15;3.00;;;13.30;99.70;;;;;;5113356;28;20039;-65
2022/05/27 05:49:29;;;;;;;10.75;2.30;;;13.30;99.90;;;;;;5106038;28;20087;-66
2022/05/27 05:51:57;;;;;;;16.17;2.65;;;13.30;99.80;;;;;;5104675;28;20306;-66
2022/05/27 05:54:25;;;;;;;14.40;2.60;;;13.40;99.70;;;;;;5087919;28;20028;-66
2022/05/27 05:56:51;;;;;;;16.42;2.80;;;13.40;99.60;;;;;;5084322;28;20029;-66
2022/05/27 05:59:18;;;;;;;12.70;2.53;;;13.40;99.70;;;;;;5068267;28;20046;-66
2022/05/27 06:01:45;;;;;;;15.95;2.92;;;13.40;99.50;;;;;;5068099;28;20028;-66
2022/05/27 06:04:11;;;;;;;11.77;2.55;;;13.50;99.30;;;;;;5083853;28;20050;-66
2022/05/27 06:06:38;;;;;;;15.65;2.55;;;13.50;99.60;;;;;;5085087;28;20031;-66
2022/05/27 06:09:05;;;;;;;24.80;3.30;;;13.50;99.60;;;;;;5066814;28;20033;-66
2022/05/27 06:11:31;;;;;;;9.90;2.38;;;13.50;99.30;;;;;;5084750;28;20032;-66
2022/05/27 06:13:57;;;;;;;15.80;2.47;;;13.50;99.40;;;;;;5085093;28;20259;-66
2022/05/27 06:16:22;;;;;;;14.45;2.92;;;13.50;99.30;;;;;;5084383;28;20242;-65
2022/05/27 06:18:49;;;;;;;17.70;2.67;;;13.50;99.60;;;;;;5084548;28;20024;-65
2022/05/27 06:21:15;;;;;;;19.10;3.30;;;13.60;99.30;;;;;;5085279;28;20016;-66
2022/05/27 06:23:41;;;;;;;14.38;2.38;;;13.50;99.20;;;;;;5084959;28;20032;-65
2022/05/27 06:26:09;;;;;;;14.90;2.35;;;13.50;98.90;;;;;;5086104;28;20025;-66
2022/05/27 06:37:03;;;;;;;14.50;2.63;;;13.40;98.30;;;;;;5089162;28;20330;-66
2022/05/27 06:39:31;;;;;;;15.45;2.90;;;13.40;98.70;;;;;;5103943;28;20027;-67
2022/05/27 06:41:57;;;;;;;16.40;2.67;;;13.40;98.60;;;;;;5102745;28;20364;-67
2022/05/27 06:44:22;;;;;;;16.23;2.70;;;13.60;98.40;;;;;;5104934;28;20264;-65
2022/05/27 06:46:51;;;;;;;11.45;2.50;;;13.60;95.70;;;;;;5102794;28;20433;-66
2022/05/27 06:49:18;;;;;;;12.05;2.92;;;13.60;95.80;;;;;;5105016;28;20059;-67
2022/05/27 06:51:44;;;;;;;17.33;3.03;;;13.70;94.90;;;;;;5086389;28;20136;-66
2022/05/27 06:54:10;;;;;;;14.50;2.92;;;13.70;95.10;;;;;;5103245;28;20024;-67
2022/05/27 06:56:37;;;;;;;21.67;2.78;;;13.70;94.50;;;;;;5102720;28;20240;-66
2022/05/27 06:59:04;;;;;;;14.85;2.67;;;13.70;94.10;;;;;;5104327;28;20319;-65
2022/05/27 07:01:30;;;;;;;13.15;2.67;;;13.70;94.10;;;;;;5104359;28;20044;-66
2022/05/27 07:03:55;;;;;;;23.80;2.75;;;13.80;93.90;;;;;;5103664;28;20086;-66
2022/05/27 07:06:25;;;;;;;12.18;2.78;;;13.80;93.70;;;;;;5102844;28;20318;-65
2022/05/27 07:08:51;;;;;;;12.45;2.53;;;13.80;93.60;;;;;;5088035;28;20315;-67
2022/05/27 07:11:16;;;;;;;16.25;2.70;;;13.90;93.50;;;;;;5104117;28;20016;-69
2022/05/27 07:13:42;;;;;;;13.57;2.63;;;13.90;93.70;;;;;;5103929;28;20023;-66
2022/05/27 07:16:08;;;;;;;17.05;2.72;;;14.00;93.60;;;;;;5103995;28;20035;-67
2022/05/27 07:18:33;;;;;;;16.23;3.25;;;14.10;93.30;;;;;;5086511;28;20170;-67
2022/05/27 07:21:01;;;;;;;19.45;3.20;;;14.10;93.20;;;;;;5101575;28;20026;-66
2022/05/27 07:23:27;;;;;;;14.50;2.83;;;14.20;93.00;;;;;;5095067;28;20031;-67
2022/05/27 07:25:54;;;;;;;19.08;3.03;;;14.30;92.40;;;;;;5100248;28;20028;-68
2022/05/27 07:28:20;;;;;;;18.30;2.85;;;14.30;91.90;;;;;;5104421;28;20058;-69
2022/05/27 07:30:45;;;;;;;16.58;2.70;;;14.30;92.30;;;;;;5099925;28;20058;-70
2022/05/27 07:33:11;;;;;;;17.80;3.75;;;14.20;92.40;;;;;;5097541;28;20222;-68
2022/05/27 07:35:37;;;;;;;14.98;2.70;;;14.40;92.30;;;;;;5103401;28;20032;-68
2022/05/27 07:38:03;;;;;;;14.82;2.63;;;14.50;91.70;;;;;;5086095;28;20036;-68
2022/05/27 07:40:28;;;;;;;17.75;3.20;;;14.60;91.70;;;;;;5086087;28;20044;-68
2022/05/27 07:42:54;;;;;;;13.25;2.92;;;14.70;91.20;;;;;;5087513;28;20126;-67
2022/05/27 07:45:26;;;;;;;12.98;2.63;;;14.60;91.40;;;;;;5091660;28;20028;-69
2022/05/27 07:47:52;;;;;;;;;;;14.60;91.30;;;;;;5102649;28;20285;-68
2022/05/27 07:50:20;;;;;;;17.48;3.53;;;14.50;91.30;;;;;;5101845;28;19916;-70
2022/05/27 07:52:46;;;;;;;16.52;3.13;;;14.50;91.40;;;;;;5092177;28;20091;-69
2022/05/27 07:55:13;;;;;;;17.13;2.80;;;14.60;91.80;;;;;;5087522;28;20152;-68
2022/05/27 07:57:47;;;;;;;14.70;2.70;;;14.80;90.70;;;;;;5089555;28;20281;-67
2022/05/27 08:00:19;;;;;;;20.08;3.25;;;14.70;91.00;;;;;;5081304;28;20253;-68
2022/05/27 08:02:44;;;;;;;18.90;3.13;;;14.40;90.30;;;;;;5083645;28;20024;-68
2022/05/27 08:05:14;;;;;;;15.10;2.72;;;14.40;90.00;;;;;;5095856;28;20036;-68
2022/05/27 08:07:43;;;;;;;15.68;2.78;;;14.40;90.20;;;;;;5093435;28;20023;-68
2022/05/27 08:10:10;;;;;;;15.20;2.83;;;14.40;90.30;;;;;;5084002;28;20024;-66
2022/05/27 08:12:36;;;;;;;21.50;3.40;;;14.50;90.30;;;;;;5081661;28;20051;-67
2022/05/27 08:15:03;;;;;;;13.77;2.38;;;14.50;89.80;;;;;;5081614;28;20020;-68
2022/05/27 08:17:28;;;;;;;16.65;3.30;;;14.40;90.00;;;;;;5082787;28;20020;-67
2022/05/27 08:19:54;;;;;;;16.05;2.88;;;14.40;90.00;;;;;;5092342;28;20062;-67
2022/05/27 08:22:19;;;;;;;16.05;3.75;;;14.60;89.20;;;;;;5101527;28;20038;-68
2022/05/27 08:24:45;;;;;;;15.43;2.90;;;14.90;89.70;;;;;;5100419;28;20016;-68
2022/05/27 08:27:11;;;;;;;18.48;3.53;;;15.20;88.90;;;;;;5106681;28;20098;-68
2022/05/27 08:29:37;;;;;;;12.93;3.33;;;15.50;87.70;;;;;;5107394;28;20219;-68
2022/05/27 08:32:04;;;;;;;13.40;2.75;;;15.60;87.30;;;;;;5103451;28;20028;-70
2022/05/27 08:40:19;;;;;;;11.90;2.63;;;15.00;86.60;;;;;;5106206;28;20370;-68
2022/05/27 08:43:01;;;;;;;13.43;3.47;;;15.00;86.70;;;;;;5107418;28;20026;-68
2022/05/27 08:45:36;;;;;;;16.52;3.13;;;15.00;87.70;;;;;;5104420;28;20130;-69
2022/05/27 08:48:08;;;;;;;12.52;3.10;;;15.00;87.70;;;;;;5100473;28;20044;-67
2022/05/27 08:50:42;;;;;;;17.98;3.20;;;15.20;86.10;;;;;;5098221;28;20033;-69
2022/05/27 08:53:48;;;;;;;13.63;2.42;;;15.10;86.70;;;;;;5102262;28;20341;-68
2022/05/27 08:59:27;;;;;;;17.30;2.95;;;15.30;87.00;;;;;;5095655;28;20020;-69
2022/05/27 09:02:32;;;;;;;14.02;2.45;;;15.20;86.50;;;;;;5100777;28;20024;-69
2022/05/27 09:05:15;;;;;;;19.45;2.97;;;15.20;87.30;;;;;;5105611;28;20303;-66
2022/05/27 09:08:10;;;;;;;11.63;2.55;;;15.40;87.10;;;;;;5096884;28;20020;-66
2022/05/27 09:10:59;;;;;;;14.23;2.85;;;15.60;86.60;;;;;;5100254;28;20219;-67
2022/05/27 09:13:41;;;;;;;14.75;2.72;;;15.80;84.80;;;;;;5105623;28;20016;-68
2022/05/27 09:16:25;;;;;;;14.90;2.95;;;15.70;84.80;;;;;;5106219;28;20028;-69
2022/05/27 09:19:06;;;;;;;17.02;3.40;;;15.70;85.80;;;;;;5094387;28;20024;-68
2022/05/27 09:21:56;;;;;;;12.95;3.15;;;15.70;85.60;;;;;;5103498;28;20352;-70
2022/05/27 09:24:50;;;;;;;18.02;3.30;;;15.80;84.80;;;;;;5092380;28;20060;-69
2022/05/27 09:27:25;;;;;;;20.85;3.00;;;15.70;85.40;;;;;;5116979;28;20023;-70
2022/05/27 09:30:02;;;;;;;14.93;3.15;;;15.60;85.20;;;;;;5119231;28;20036;-68
2022/05/27 09:32:51;;;;;;;18.17;3.42;;;15.50;85.50;;;;;;5097829;28;20099;-69
2022/05/27 09:35:28;;;;;;;18.25;2.70;;;15.40;85.90;;;;;;5084675;28;20036;-69
2022/05/27 09:37:58;;;;;;;15.77;2.70;;;15.40;85.20;;;;;;5085484;28;20039;-70
2022/05/27 09:40:49;;;;;;;15.15;3.88;;;15.40;85.30;;;;;;5084369;28;20028;-69
2022/05/27 09:43:48;;;;;;;14.05;2.58;;;15.50;85.50;;;;;;5070167;28;20200;-68
2022/05/27 09:46:23;;;;;;;14.88;3.10;;;15.30;86.10;;;;;;5089413;28;20015;-69
2022/05/27 09:48:49;;;;;;;16.77;2.78;;;15.20;86.90;;;;;;5083788;28;20235;-69
2022/05/27 09:51:17;;;;;;;14.93;2.88;;;15.40;85.70;;;;;;5084449;28;20058;-68
2022/05/27 09:53:48;;;;;;;15.02;2.83;;;15.50;82.80;;;;;;5101555;28;20024;-67
2022/05/27 09:56:15;;;;;;;13.68;2.72;;;15.50;83.50;;;;;;5105302;28;20024;-69
2022/05/27 09:58:44;;;;;;;18.40;2.70;;;15.60;83.50;;;;;;5104810;28;20036;-67
2022/05/27 10:01:28;;;;;;;13.40;2.15;;;15.90;83.60;;;;;;5100152;28;20357;-70
2022/05/27 10:04:13;;;;;;;15.82;2.55;;;16.00;83.40;;;;;;5085647;28;20066;-66
2022/05/27 10:06:40;;;;;;;16.42;2.80;;;16.20;83.20;;;;;;5117028;28;20172;-68
2022/05/27 10:09:11;;;;;;;16.40;3.20;;;16.30;82.70;;;;;;5074706;28;20028;-68
2022/05/27 10:11:54;;;;;;;13.87;3.13;;;16.30;82.10;;;;;;5077339;28;20016;-68
2022/05/27 10:14:34;;;;;;;12.48;2.67;;;16.30;81.20;;;;;;5102459;28;20474;-67
2022/05/27 10:17:22;;;;;;;10.20;2.65;;;16.20;81.60;;;;;;5104373;28;20032;-67
2022/05/27 10:19:48;;;;;;;15.40;3.10;;;16.10;81.50;;;;;;5104270;28;20108;-67
2022/05/27 10:22:30;;;;;;;11.13;2.92;;;16.20;81.00;;;;;;5105251;28;20083;-67
2022/05/27 10:24:59;;;;;;;;;;;16.30;81.70;;;;;;5104059;28;20016;-67
2022/05/27 10:27:35;;;;;;;11.82;2.40;;;16.40;80.90;;;;;;5117405;28;19907;-67
2022/05/27 10:30:08;;;;;;;11.38;2.67;;;16.40;80.80;;;;;;5107762;28;20048;-69
2022/05/27 10:32:54;;;;;;;12.98;3.03;;;16.40;80.50;;;;;;5124560;28;20057;-69
2022/05/27 10:35:33;;;;;;;12.02;2.63;;;16.50;80.40;;;;;;5109965;28;20333;-69
2022/05/27 10:38:34;;;;;;;18.20;2.90;;;16.50;80.70;;;;;;5123597;28;20368;-67
2022/05/27 10:41:34;;;;;;;15.20;2.33;;;16.30;81.10;;;;;;5110174;28;20222;-67
2022/05/27 10:44:36;;;;;;;12.90;3.03;;;16.30;81.20;;;;;;5083765;28;20032;-69
2022/05/27 10:47:05;;;;;;;17.10;3.20;;;16.40;80.30;;;;;;5092243;28;20047;-67
2022/05/27 10:50:00;;;;;;;11.90;2.85;;;16.50;80.00;;;;;;5098004;28;20078;-70
2022/05/27 10:53:05;;;;;;;12.68;3.20;;;16.40;80.60;;;;;;5083186;28;20020;-69
2022/05/27 10:56:03;;;;;;;15.52;2.40;;;16.50;80.40;;;;;;5089578;28;20030;-67
2022/05/27 11:02:04;;;;;;;13.82;2.47;;;16.40;79.30;;;;;;5086938;28;20029;-67
2022/05/27 11:05:10;;;;;;;12.15;2.75;;;16.40;79.30;;;;;;5082432;28;20021;-68
2022/05/27 11:07:51;;;;;;;8.32;2.40;;;16.50;79.60;;;;;;5093390;28;20059;-68
2022/05/27 11:10:43;;;;;;;9.70;2.57;;;16.60;79.60;;;;;;5103986;28;20124;-69
2022/05/27 11:16:52;;;;;;;19.05;2.70;;;16.60;80.00;;;;;;5091019;28;20020;-70
2022/05/27 11:19:38;;;;;;;14.35;2.63;;;16.70;81.40;;;;;;5082834;28;20017;-70
2022/05/27 11:22:27;;;;;;;9.00;2.58;;;17.00;80.20;;;;;;5103938;28;20019;-68
2022/05/27 11:25:21;;;;;;;17.48;2.60;;;17.00;78.70;;;;;;5082461;28;20058;-71
2022/05/27 11:28:02;;;;;;;11.02;2.50;;;16.90;78.60;;;;;;5105419;28;20206;-70
2022/05/27 11:30:38;;;;;;;12.15;2.47;;;16.70;78.30;;;;;;5123901;28;20019;-70
2022/05/27 11:33:44;;;;;;;16.80;3.05;;;16.60;79.60;;;;;;5082199;28;20020;-68
2022/05/27 11:36:41;;;;;;;16.90;2.88;;;16.60;80.30;;;;;;5085166;28;20395;-68
2022/05/27 11:39:50;;;;;;;12.00;2.55;;;16.70;80.70;;;;;;5076327;28;20062;-70
2022/05/27 11:42:56;;;;;;;18.05;2.45;;;16.80;79.80;;;;;;5102691;28;20019;-68
2022/05/27 11:45:25;;;;;;;18.90;3.28;;;17.10;79.30;;;;;;5102848;28;20041;-69
2022/05/27 11:48:18;;;;;;;13.60;2.70;;;17.10;78.70;;;;;;5100525;28;20058;-69
2022/05/27 11:51:24;;;;;;;10.00;2.17;;;17.10;78.20;;;;;;5102526;28;20322;-68
2022/05/27 11:54:19;;;;;;;10.77;2.47;;;17.10;78.80;;;;;;5091563;28;20047;-70
2022/05/27 11:57:25;;;;;;;15.27;2.78;;;17.00;78.70;;;;;;5102901;28;20023;-69
2022/05/27 12:00:00;;;;;;;11.27;2.22;;;17.10;79.90;;;;;;5102769;28;20032;-70
2022/05/27 12:02:37;;;;;;;16.35;2.95;;;17.20;79.40;;;;;;5102272;28;20242;-69
2022/05/27 12:05:14;;;;;;;13.35;2.80;;;17.30;79.30;;;;;;5085489;28;20016;-68
2022/05/27 12:07:52;;;;;;;13.05;2.72;;;17.30;78.30;;;;;;5094396;28;20303;-69
2022/05/27 12:10:28;;;;;;;11.23;2.40;;;17.30;79.20;;;;;;5083232;28;20032;-69
2022/05/27 12:13:34;;;;;;;10.82;2.40;;;17.30;79.10;;;;;;5082858;28;20128;-68
2022/05/27 12:16:08;;;;;;;13.27;2.85;;;17.50;79.20;;;;;;5078580;28;20031;-71
2022/05/27 12:18:58;;;;;;;11.30;2.20;;;17.60;77.80;;;;;;5095584;28;20091;-69
2022/05/27 12:21:28;;;;;;;21.23;2.78;;;17.60;76.60;;;;;;5090442;28;20028;-69
2022/05/27 12:23:59;;;;;;;13.38;2.95;;;17.60;77.10;;;;;;5081813;28;20020;-68
2022/05/27 12:26:32;;;;;;;9.73;2.58;;;17.60;77.00;;;;;;5074130;28;20030;-70
2022/05/27 12:29:02;;;;;;;6.68;1.77;;;17.60;77.30;;;;;;5122371;28;20019;-66
2022/05/27 12:31:31;;;;;;;8.45;2.40;;;17.50;78.20;;;;;;5122151;28;20057;-67
2022/05/27 12:33:57;;;;;;;11.93;2.70;;;17.50;77.70;;;;;;5122515;28;20043;-68
2022/05/27 12:36:26;;;;;;;9.02;2.33;;;17.40;78.30;;;;;;5123112;28;20329;-68
2022/05/27 12:38:54;;;;;;;8.52;2.22;;;17.40;77.20;;;;;;5122389;28;20261;-68
2022/05/27 12:41:39;;;;;;;13.32;2.70;;;17.50;77.40;;;;;;5075679;28;20207;-68
2022/05/27 12:44:26;;;;;;;9.10;1.88;;;17.70;78.20;;;;;;5081799;28;20084;-66
2022/05/27 12:46:59;;;;;;;17.48;2.72;;;17.80;76.40;;;;;;5086771;28;20036;-68
2022/05/27 12:49:42;;;;;;;12.55;2.65;;;17.80;78.80;;;;;;5101738;28;20065;-68
2022/05/27 12:52:50;;;;;;;10.90;2.35;;;17.90;77.20;;;;;;5102425;28;20079;-70
2022/05/27 13:00:55;;;;;;;9.07;2.30;;;17.90;77.80;;;;;;5090831;28;20070;-68
2022/05/27 13:01:29;;;;;;;13.60;2.72;;;18.10;78.20;;;;;;5101554;28;20077;-68
2022/05/27 13:03:57;;;;;;;15.95;2.78;;;18.10;78.60;;;;;;5071084;28;20307;-68
2022/05/27 13:06:37;;;;;;;11.02;2.90;;;18.30;77.70;;;;;;5088734;28;20063;-70
2022/05/27 13:09:42;;;;;;;11.80;2.35;;;18.40;78.60;;;;;;5087303;28;20028;-69
2022/05/27 13:12:11;;;;;;;9.68;2.13;;;18.60;77.60;;;;;;5089105;28;20061;-68
2022/05/27 13:14:48;;;;;;;12.07;2.70;;;18.60;77.90;;;;;;5102585;28;20028;-69
2022/05/27 13:17:29;;;;;;;8.82;2.33;;;18.50;77.60;;;;;;5097207;28;20315;-69
2022/05/27 13:20:07;;;;;;;11.13;2.60;;;18.50;77.70;;;;;;5104998;28;20016;-68
2022/05/27 13:22:51;;;;;;;17.83;2.97;;;18.50;78.20;;;;;;5104842;28;20024;-70
2022/05/27 13:25:24;;;;;;;12.02;2.53;;;18.50;78.80;;;;;;5106415;28;20020;-69
2022/05/27 13:28:03;;;;;;;13.73;2.67;;;18.60;77.60;;;;;;5105122;28;20031;-67
2022/05/27 13:30:56;;;;;;;11.00;2.70;;;18.60;77.80;;;;;;5126757;28;20084;-69
2022/05/27 13:33:29;;;;;;;16.50;3.10;;;18.60;79.00;;;;;;5112234;28;20026;-68
2022/05/27 13:35:56;;;;;;;15.80;3.17;;;18.60;78.70;;;;;;5125595;28;20043;-69
2022/05/27 13:38:28;;;;;;;11.80;2.33;;;18.70;79.50;;;;;;5125167;28;20030;-69
2022/05/27 13:40:55;;;;;;;10.23;2.58;;;18.90;78.90;;;;;;5125456;28;20069;-68
2022/05/27 13:43:28;;;;;;;11.90;2.88;;;18.90;78.60;;;;;;5125281;28;20299;-68
2022/05/27 13:46:06;;;;;;;11.55;2.45;;;18.80;78.70;;;;;;5123243;28;20019;-71
2022/05/27 13:48:55;;;;;;;11.23;2.63;;;19.00;78.90;;;;;;5103048;28;20063;-69
2022/05/27 13:51:23;;;;;;;14.32;2.65;;;19.10;78.70;;;;;;5105029;28;20030;-69